Time;durP1;ratioP1;P1;durP2;ratioP2;P2;SDS_P1;SDS_P2;PMS_P1;PMS_P2;Temp;Humidity;BMP_temperature;BMP_pressure;BME280_temperature;BME280_humidity;BME280_pressure;Samples;Min_cycle;Max_cycle;Signal;HPM_P1;HPM_P2
2021/11/05 00:00:41;;;;;;;7.43;5.75;;;;;;;-145.06;100.00;60892.56;4869625;28;20056;-89
2021/11/05 00:03:20;;;;;;;8.65;5.63;;;;;;;-145.06;100.00;60892.56;4872654;28;20715;-87
2021/11/05 00:05:59;;;;;;;8.50;5.47;;;;;;;-145.06;100.00;60892.56;4881451;28;20029;-89
2021/11/05 00:08:37;;;;;;;6.47;4.53;;;;;;;-145.06;100.00;60892.56;4858935;28;20041;-89
2021/11/05 00:11:16;;;;;;;7.55;4.93;;;;;;;-145.06;100.00;60892.56;4873864;28;20037;-88
2021/11/05 00:13:55;;;;;;;7.60;5.57;;;;;;;-145.06;100.00;60892.56;4884853;28;20036;-88
2021/11/05 00:16:34;;;;;;;9.03;6.27;;;;;;;-145.06;100.00;60892.56;4869597;28;20388;-87
2021/11/05 00:19:14;;;;;;;8.07;5.28;;;;;;;-145.06;100.00;60892.56;4863313;28;20729;-88
2021/11/05 00:21:53;;;;;;;8.63;5.75;;;;;;;-145.06;100.00;60892.56;4872095;28;20029;-88
2021/11/05 00:24:31;;;;;;;8.02;5.72;;;;;;;8.80;100.00;60892.56;4880474;28;20486;-88
2021/11/05 00:27:10;;;;;;;8.57;5.80;;;;;;;-145.06;100.00;60892.56;4875402;28;20060;-88
2021/11/05 00:29:49;;;;;;;11.10;6.95;;;;;;;-145.06;100.00;60892.56;4874142;28;20033;-88
2021/11/05 00:32:28;;;;;;;8.10;5.47;;;;;;;-145.06;100.00;60892.56;4886879;28;20059;-89
2021/11/05 00:35:08;;;;;;;9.50;6.27;;;;;;;10.68;100.00;60892.56;4865557;28;20029;-88
2021/11/05 00:37:47;;;;;;;;;;;;;;;-145.06;100.00;60892.56;4857146;28;20256;-88
2021/11/05 00:40:28;;;;;;;6.82;4.68;;;;;;;8.81;100.00;60892.56;4875170;28;19991;-88
2021/11/05 00:43:07;;;;;;;7.60;5.30;;;;;;;-145.06;100.00;60892.56;4873851;28;20355;-87
2021/11/05 00:45:46;;;;;;;9.07;6.38;;;;;;;-145.06;100.00;60892.56;4874909;28;20028;-88
2021/11/05 00:48:25;;;;;;;9.15;6.30;;;;;;;8.86;100.00;60892.56;4874988;28;20103;-88
2021/11/05 00:51:04;;;;;;;8.05;5.55;;;;;;;10.68;100.00;60892.56;4866686;28;20025;-88
2021/11/05 00:53:43;;;;;;;9.73;6.50;;;;;;;-145.06;100.00;60892.56;4867325;28;20021;-89
2021/11/05 00:56:22;;;;;;;10.40;6.88;;;;;;;-145.06;100.00;60892.56;4863666;28;20359;-88
2021/11/05 00:59:01;;;;;;;11.35;7.20;;;;;;;-145.06;100.00;60892.56;4868407;28;20041;-88
2021/11/05 01:01:40;;;;;;;8.73;6.32;;;;;;;-145.06;100.00;60892.56;4874834;28;20025;-88
2021/11/05 01:04:19;;;;;;;9.27;5.93;;;;;;;-145.06;100.00;60892.56;4865734;28;20030;-89
2021/11/05 01:06:58;;;;;;;11.45;6.80;;;;;;;-145.06;100.00;60892.56;4855773;28;20036;-89
2021/11/05 01:09:38;;;;;;;9.77;6.72;;;;;;;-145.06;100.00;60892.56;4869856;28;20033;-88
2021/11/05 01:12:18;;;;;;;12.75;7.90;;;;;;;-145.06;100.00;60892.56;4862516;28;20054;-87
2021/11/05 01:14:57;;;;;;;;;;;;;;;-145.06;100.00;60892.56;4874491;28;20028;-88
2021/11/05 01:17:37;;;;;;;10.53;6.70;;;;;;;-145.06;100.00;60892.56;4872387;28;20489;-88
2021/11/05 01:20:16;;;;;;;;;;;;;;;-145.06;100.00;60892.56;4868109;28;20032;-88
2021/11/05 01:22:56;;;;;;;11.25;7.45;;;;;;;-145.06;100.00;60892.56;4873270;28;19912;-88
2021/11/05 01:25:34;;;;;;;12.55;7.95;;;;;;;-145.06;100.00;60892.56;4867162;28;20061;-88
2021/11/05 01:28:13;;;;;;;12.33;7.33;;;;;;;-145.06;100.00;60892.56;4887037;28;20060;-88
2021/11/05 01:30:52;;;;;;;11.53;7.17;;;;;;;8.94;100.00;60892.56;4874800;28;20279;-88
2021/11/05 01:33:32;;;;;;;11.45;7.28;;;;;;;8.97;100.00;60892.56;4877996;28;20263;-86
2021/11/05 01:36:12;;;;;;;12.82;6.90;;;;;;;-145.06;100.00;60892.56;4873604;28;20056;-88
2021/11/05 01:38:50;;;;;;;;;;;;;;;-145.06;100.00;60892.56;4874694;28;20363;-88
2021/11/05 01:41:30;;;;;;;10.50;6.63;;;;;;;-145.06;100.00;60892.56;4872635;28;19909;-88
2021/11/05 01:44:09;;;;;;;12.65;7.28;;;;;;;-145.06;100.00;60892.56;4871648;28;20450;-87
2021/11/05 01:46:48;;;;;;;13.17;7.50;;;;;;;-145.06;100.00;60892.56;4874094;28;20033;-87
2021/11/05 01:49:27;;;;;;;14.68;8.10;;;;;;;-145.06;100.00;60892.56;4871121;28;20024;-88
2021/11/05 01:52:07;;;;;;;16.73;8.50;;;;;;;-145.06;100.00;60892.56;4859205;28;20025;-88
2021/11/05 01:54:46;;;;;;;;;;;;;;;-145.06;100.00;60892.56;4866333;28;20041;-88
2021/11/05 01:57:25;;;;;;;10.73;6.43;;;;;;;9.03;100.00;60892.56;4874705;28;20124;-88
2021/11/05 02:00:06;;;;;;;15.23;8.02;;;;;;;-145.06;100.00;60892.56;4866624;28;20100;-88
2021/11/05 02:02:46;;;;;;;15.70;8.68;;;;;;;-145.06;100.00;60892.56;4869015;28;20032;-89
2021/11/05 02:05:25;;;;;;;13.48;7.70;;;;;;;-145.06;100.00;60892.56;4874762;28;20108;-88
2021/11/05 02:08:04;;;;;;;12.15;7.28;;;;;;;-145.06;100.00;60892.56;4860002;28;20123;-88
2021/11/05 02:10:44;;;;;;;10.52;5.93;;;;;;;-145.06;100.00;60892.56;4862073;28;20458;-87
2021/11/05 02:13:27;;;;;;;11.77;6.63;;;;;;;-145.06;100.00;60892.56;4872026;28;20029;-89
2021/11/05 02:16:09;;;;;;;11.07;6.25;;;;;;;-145.06;100.00;60892.56;4873463;28;20116;-88
2021/11/05 02:18:50;;;;;;;11.82;6.47;;;;;;;-145.06;100.00;60892.56;4872300;28;20521;-88
2021/11/05 02:21:37;;;;;;;9.50;6.22;;;;;;;9.04;100.00;60892.56;4870076;28;20037;-88
2021/11/05 02:24:16;;;;;;;9.82;6.30;;;;;;;-145.06;100.00;60892.56;4861825;28;20312;-88
2021/11/05 02:26:58;;;;;;;9.95;6.20;;;;;;;-145.06;100.00;60892.56;4879238;28;20426;-88
2021/11/05 02:29:37;;;;;;;10.13;6.00;;;;;;;-145.06;100.00;60892.56;4876844;28;20033;-88
2021/11/05 02:32:17;;;;;;;9.35;5.75;;;;;;;-145.06;100.00;60892.56;4874073;28;20021;-87
2021/11/05 02:34:56;;;;;;;10.07;6.10;;;;;;;-145.06;100.00;60892.56;4875956;28;20500;-87
2021/11/05 02:37:34;;;;;;;9.00;6.03;;;;;;;-145.06;100.00;60892.56;4867852;28;20364;-87
2021/11/05 02:40:15;;;;;;;8.90;6.00;;;;;;;-145.06;100.00;60892.56;4859029;28;20029;-87
2021/11/05 02:42:54;;;;;;;9.48;5.40;;;;;;;-145.06;100.00;60892.56;4864455;28;20033;-87
2021/11/05 02:45:33;;;;;;;7.32;4.85;;;;;;;187.52;100.00;60892.56;4874045;28;20060;-89
2021/11/05 02:48:12;;;;;;;7.22;4.82;;;;;;;-145.06;100.00;60892.56;4872247;28;20033;-88
2021/11/05 02:50:51;;;;;;;6.22;4.15;;;;;;;-145.06;100.00;60892.56;4870118;28;20034;-88
2021/11/05 02:53:30;;;;;;;7.53;4.70;;;;;;;-145.06;100.00;60892.56;4882680;28;20021;-88
2021/11/05 02:56:09;;;;;;;7.93;4.67;;;;;;;-145.06;100.00;60892.56;4883820;28;20279;-88
2021/11/05 02:58:49;;;;;;;5.97;4.17;;;;;;;-145.06;100.00;60892.56;4872395;28;20741;-88
2021/11/05 03:01:29;;;;;;;6.65;4.80;;;;;;;8.89;100.00;60892.56;4860749;28;20020;-88
2021/11/05 03:04:09;;;;;;;6.78;4.45;;;;;;;-145.06;100.00;60892.56;4875765;28;20467;-88
2021/11/05 03:06:48;;;;;;;;;;;;;;;-145.06;100.00;60892.56;4885781;28;20041;-88
2021/11/05 03:09:32;;;;;;;5.22;3.88;;;;;;;-145.06;100.00;60892.56;4869442;28;19912;-89
2021/11/05 03:12:12;;;;;;;9.00;4.00;;;;;;;-145.06;100.00;60892.56;4885128;28;20029;-88
2021/11/05 03:14:51;;;;;;;5.80;3.85;;;;;;;-145.06;100.00;60892.56;4871081;28;20026;-88
2021/11/05 03:17:30;;;;;;;6.07;3.60;;;;;;;-145.06;100.00;60892.56;4871311;28;20036;-88
2021/11/05 03:20:10;;;;;;;;;;;;;;;-145.06;100.00;60892.56;4876850;28;20279;-87
2021/11/05 03:22:49;;;;;;;;;;;;;;;-145.06;100.00;60892.56;4881954;28;19912;-88
2021/11/05 03:25:28;;;;;;;3.28;2.33;;;;;;;-145.06;100.00;60892.56;4866305;28;20377;-88
2021/11/05 03:28:08;;;;;;;3.42;2.65;;;;;;;-145.06;100.00;60892.56;4875236;28;20064;-88
2021/11/05 03:30:47;;;;;;;4.18;2.95;;;;;;;-145.06;100.00;60892.56;4875510;28;20052;-87
2021/11/05 03:33:26;;;;;;;4.83;3.17;;;;;;;-145.06;100.00;60892.56;4871507;28;20068;-88
2021/11/05 03:36:05;;;;;;;4.85;3.10;;;;;;;-145.06;100.00;60892.56;4877801;28;20029;-88
2021/11/05 03:38:44;;;;;;;4.93;3.03;;;;;;;-145.06;100.00;60892.56;4861091;28;20041;-87
2021/11/05 03:41:23;;;;;;;5.32;3.33;;;;;;;-145.06;100.00;60892.56;4864517;28;20021;-88
2021/11/05 03:44:02;;;;;;;5.55;3.35;;;;;;;8.77;100.00;60892.56;4872869;28;20021;-88
2021/11/05 03:46:42;;;;;;;4.15;2.90;;;;;;;-145.06;100.00;60892.56;4874054;28;20024;-88
2021/11/05 03:49:21;;;;;;;5.13;3.08;;;;;;;-145.06;100.00;60892.56;4870199;28;20061;-87
2021/11/05 03:52:00;;;;;;;4.85;3.22;;;;;;;-145.06;100.00;60892.56;4870685;28;20037;-88
2021/11/05 03:54:39;;;;;;;5.43;3.53;;;;;;;-145.06;100.00;60892.56;4869476;28;20036;-87
2021/11/05 03:57:17;;;;;;;4.47;3.05;;;;;;;-145.06;100.00;60892.56;4876314;28;20037;-88
2021/11/05 03:59:56;;;;;;;5.43;3.50;;;;;;;-145.06;100.00;60892.56;4871741;28;20112;-87
2021/11/05 04:02:37;;;;;;;4.97;3.53;;;;;;;-145.06;100.00;60892.56;4874692;28;20036;-88
2021/11/05 04:05:16;;;;;;;4.95;3.25;;;;;;;-145.06;100.00;60892.56;4866049;28;20045;-89
2021/11/05 04:07:55;;;;;;;4.90;3.33;;;;;;;-145.06;100.00;60892.56;4870295;28;20040;-87
2021/11/05 04:10:34;;;;;;;6.23;4.10;;;;;;;8.87;100.00;60892.56;4862061;28;20111;-88
2021/11/05 04:13:13;;;;;;;5.05;3.38;;;;;;;8.86;100.00;60892.56;4864982;28;20276;-88
2021/11/05 04:15:53;;;;;;;4.80;3.53;;;;;;;-145.06;100.00;60892.56;4870824;28;20124;-87
2021/11/05 04:18:33;;;;;;;6.82;4.05;;;;;;;-145.06;100.00;60892.56;4875957;28;20029;-88
2021/11/05 04:21:12;;;;;;;6.60;4.03;;;;;;;-145.06;100.00;60892.56;4867830;28;20032;-87
2021/11/05 04:23:51;;;;;;;6.85;4.25;;;;;;;-145.06;100.00;60892.56;4870320;28;20112;-87
2021/11/05 04:26:30;;;;;;;6.93;4.27;;;;;;;-145.06;100.00;60892.56;4876258;28;20411;-88
2021/11/05 04:29:09;;;;;;;5.57;3.95;;;;;;;8.88;100.00;60892.56;4888448;28;20032;-87
2021/11/05 04:31:48;;;;;;;5.17;3.60;;;;;;;-145.06;100.00;60892.56;4881520;28;20363;-87
2021/11/05 04:34:27;;;;;;;5.20;3.80;;;;;;;-145.06;100.00;60892.56;4871767;28;20057;-88
2021/11/05 04:37:06;;;;;;;6.10;3.97;;;;;;;-145.06;100.00;60892.56;4874765;28;20068;-89
2021/11/05 04:39:45;;;;;;;6.17;3.90;;;;;;;-145.06;100.00;60892.56;4856748;28;20037;-87
2021/11/05 04:42:24;;;;;;;7.13;4.53;;;;;;;-145.06;100.00;60892.56;4864350;28;20595;-89
2021/11/05 04:45:03;;;;;;;5.87;3.97;;;;;;;187.52;100.00;60892.56;4874777;28;20672;-88
2021/11/05 04:47:42;;;;;;;6.45;4.03;;;;;;;8.96;100.00;60892.56;4863422;28;20017;-88
2021/11/05 04:50:21;;;;;;;6.20;3.90;;;;;;;8.98;100.00;60892.56;4858882;28;20037;-89
2021/11/05 04:53:00;;;;;;;6.85;4.32;;;;;;;-145.06;100.00;60892.56;4867278;28;20491;-87
2021/11/05 04:55:39;;;;;;;5.07;3.53;;;;;;;-145.06;100.00;60892.56;4867985;28;20025;-87
2021/11/05 04:58:18;;;;;;;6.70;4.45;;;;;;;-145.06;100.00;60892.56;4857113;28;20025;-88
2021/11/05 05:00:57;;;;;;;6.82;4.43;;;;;;;9.02;100.00;60892.56;4861352;28;20120;-88
2021/11/05 05:03:36;;;;;;;7.72;4.65;;;;;;;8.98;100.00;60892.56;4871110;28;20025;-86
2021/11/05 05:06:15;;;;;;;7.45;4.78;;;;;;;8.99;100.00;60892.56;4889329;28;20029;-87
2021/11/05 05:08:54;;;;;;;7.05;4.93;;;;;;;8.98;100.00;60892.56;4868066;28;20364;-88
2021/11/05 05:11:33;;;;;;;7.00;4.70;;;;;;;-145.06;100.00;60892.56;4866963;28;20029;-87
2021/11/05 05:14:14;;;;;;;6.93;4.50;;;;;;;8.98;100.00;60892.56;4873428;28;20275;-88
2021/11/05 05:16:53;;;;;;;7.00;4.43;;;;;;;-145.06;100.00;60892.56;4866932;28;20068;-88
2021/11/05 05:19:32;;;;;;;7.10;4.77;;;;;;;-145.06;100.00;60892.56;4871132;28;20056;-88
2021/11/05 05:22:10;;;;;;;7.25;5.00;;;;;;;-145.06;100.00;60892.56;4871305;28;20303;-87
2021/11/05 05:24:50;;;;;;;8.40;5.35;;;;;;;8.88;100.00;60892.56;4863337;28;20016;-87
2021/11/05 05:27:29;;;;;;;7.90;5.03;;;;;;;9.06;100.00;60892.56;4866663;28;20052;-87
2021/11/05 05:30:13;;;;;;;9.13;5.53;;;;;;;-145.06;100.00;60892.56;4860841;28;20029;-88
2021/11/05 05:32:51;;;;;;;11.02;6.88;;;;;;;-145.06;100.00;60892.56;4868816;28;20037;-88
2021/11/05 05:35:31;;;;;;;9.37;5.70;;;;;;;8.77;100.00;60892.56;4868421;28;20060;-87
2021/11/05 05:38:09;;;;;;;8.60;5.90;;;;;;;-145.06;100.00;60892.56;4876754;28;20033;-88
2021/11/05 05:40:48;;;;;;;9.27;5.75;;;;;;;-145.06;100.00;60892.56;4875385;28;20296;-87
2021/11/05 05:43:27;;;;;;;8.93;5.30;;;;;;;-145.06;100.00;60892.56;4873124;28;20052;-88
2021/11/05 05:46:06;;;;;;;7.00;4.88;;;;;;;-145.06;100.00;60892.56;4873429;28;20745;-87
2021/11/05 05:48:45;;;;;;;6.43;4.82;;;;;;;-145.06;100.00;60892.56;4867400;28;20032;-89
2021/11/05 05:51:24;;;;;;;7.75;5.10;;;;;;;-145.06;100.00;60892.56;4872982;28;20017;-88
2021/11/05 05:54:03;;;;;;;6.70;4.93;;;;;;;-145.06;100.00;60892.56;4868594;28;20360;-88
2021/11/05 05:56:42;;;;;;;9.33;5.53;;;;;;;-145.06;100.00;60892.56;4871624;28;20025;-87
2021/11/05 05:59:21;;;;;;;8.23;5.82;;;;;;;-145.06;100.00;60892.56;4877549;28;20259;-88
2021/11/05 06:02:00;;;;;;;10.02;6.28;;;;;;;-145.06;100.00;60892.56;4874254;28;20482;-88
2021/11/05 06:04:39;;;;;;;9.15;5.57;;;;;;;-145.06;100.00;60892.56;4873032;28;20056;-88
2021/11/05 06:07:18;;;;;;;10.73;7.13;;;;;;;-145.06;100.00;60892.56;4874183;28;20493;-88
2021/11/05 06:09:57;;;;;;;10.23;7.10;;;;;;;-145.06;100.00;60892.56;4869360;28;20045;-88
2021/11/05 06:12:35;;;;;;;9.37;6.63;;;;;;;-145.06;100.00;60892.56;4870954;28;20037;-89
2021/11/05 06:15:14;;;;;;;9.32;6.78;;;;;;;-145.06;100.00;60892.56;4869654;28;20355;-87
2021/11/05 06:17:54;;;;;;;11.40;7.43;;;;;;;-145.06;100.00;60892.56;4877284;28;20029;-89
2021/11/05 06:20:33;;;;;;;9.50;7.22;;;;;;;-145.06;100.00;60892.56;4875935;28;20607;-87
2021/11/05 06:23:12;;;;;;;10.48;6.53;;;;;;;-145.06;100.00;60892.56;4870433;28;20024;-87
2021/11/05 06:25:51;;;;;;;11.13;7.00;;;;;;;-145.06;100.00;60892.56;4874478;28;20546;-88
2021/11/05 06:28:30;;;;;;;10.23;6.88;;;;;;;-145.06;100.00;60892.56;4867502;28;20029;-88
2021/11/05 06:31:09;;;;;;;8.57;6.30;;;;;;;8.72;100.00;60892.56;4876741;28;20372;-87
2021/11/05 06:33:48;;;;;;;9.38;5.47;;;;;;;-145.06;100.00;60892.56;4874693;28;20024;-89
2021/11/05 06:36:27;;;;;;;8.23;5.80;;;;;;;10.68;100.00;60892.56;4869766;28;20037;-87
2021/11/05 06:39:06;;;;;;;8.07;5.28;;;;;;;-145.06;100.00;60892.56;4885526;28;20264;-87
2021/11/05 06:41:45;;;;;;;7.43;5.15;;;;;;;-145.06;100.00;60892.56;4870248;28;20045;-88
2021/11/05 06:44:25;;;;;;;7.67;5.27;;;;;;;-145.06;100.00;60892.56;4872988;28;20041;-87
2021/11/05 06:47:04;;;;;;;;;;;;;;;-145.06;100.00;60892.56;4871639;28;20040;-88
2021/11/05 06:49:43;;;;;;;8.60;5.80;;;;;;;-145.06;100.00;60892.56;4865924;28;19913;-89
2021/11/05 06:52:22;;;;;;;7.30;5.07;;;;;;;-145.06;100.00;60892.56;4870115;28;20028;-88
2021/11/05 06:55:06;;;;;;;7.80;5.07;;;;;;;-145.06;100.00;60892.56;4872994;28;20024;-89
2021/11/05 06:57:45;;;;;;;8.07;5.32;;;;;;;-145.06;100.00;60892.56;4872415;28;20033;-89
2021/11/05 07:00:24;;;;;;;7.67;5.40;;;;;;;-145.06;100.00;60892.56;4870061;28;20029;-88
2021/11/05 07:03:05;;;;;;;6.00;4.65;;;;;;;-145.06;100.00;60892.56;4871633;28;20100;-88
2021/11/05 07:05:44;;;;;;;6.47;4.68;;;;;;;-145.06;100.00;60892.56;4869089;28;20872;-87
2021/11/05 07:08:23;;;;;;;7.57;4.95;;;;;;;-145.06;100.00;60892.56;4870759;28;20036;-88
2021/11/05 07:11:03;;;;;;;7.57;5.35;;;;;;;9.38;100.00;60892.56;4871739;28;20498;-87
2021/11/05 07:13:42;;;;;;;8.00;5.13;;;;;;;-145.06;100.00;60892.56;4868555;28;20458;-89
2021/11/05 07:16:22;;;;;;;7.20;4.78;;;;;;;-145.06;100.00;60892.56;4864484;28;20419;-89
2021/11/05 07:19:03;;;;;;;7.68;5.30;;;;;;;-145.06;100.00;60892.56;4876681;28;20056;-88
2021/11/05 07:21:42;;;;;;;8.13;6.00;;;;;;;-145.06;100.00;60892.56;4861721;28;20021;-88
2021/11/05 07:24:21;;;;;;;8.93;5.95;;;;;;;-145.06;100.00;60892.56;4876290;28;20021;-89
2021/11/05 07:27:00;;;;;;;7.47;5.68;;;;;;;-145.06;100.00;60892.56;4872314;28;20088;-89
2021/11/05 07:29:41;;;;;;;8.63;5.77;;;;;;;-145.06;100.00;60892.56;4872151;28;20347;-88
2021/11/05 07:32:20;;;;;;;7.55;5.43;;;;;;;-145.06;100.00;60892.56;4867183;28;20475;-87
2021/11/05 07:34:59;;;;;;;8.52;5.57;;;;;;;-145.06;100.00;60892.56;4875855;28;20414;-88
2021/11/05 07:37:38;;;;;;;7.33;5.53;;;;;;;-145.06;100.00;60892.56;4899337;28;20473;-87
2021/11/05 07:40:18;;;;;;;8.67;6.20;;;;;;;-145.06;100.00;60892.56;4875481;28;20263;-88
2021/11/05 07:42:57;;;;;;;8.77;5.80;;;;;;;9.38;100.00;60892.56;4891142;28;20073;-87
2021/11/05 07:45:37;;;;;;;8.38;5.00;;;;;;;-145.06;100.00;60892.56;4883346;28;20029;-88
2021/11/05 07:48:16;;;;;;;7.25;5.03;;;;;;;-145.06;100.00;60892.56;4863812;28;20037;-88
2021/11/05 07:50:55;;;;;;;7.75;4.90;;;;;;;-145.06;100.00;60892.56;4874284;28;20032;-88
2021/11/05 07:53:34;;;;;;;6.53;4.70;;;;;;;-145.06;100.00;60892.56;4866686;28;20099;-89
2021/11/05 07:56:14;;;;;;;6.82;4.75;;;;;;;-145.06;100.00;60892.56;4870673;28;20455;-88
2021/11/05 07:58:53;;;;;;;6.63;4.40;;;;;;;9.07;100.00;60892.56;4881587;28;20045;-88
2021/11/05 08:01:32;;;;;;;6.40;4.40;;;;;;;9.12;100.00;60892.56;4872600;28;20455;-88
2021/11/05 08:04:11;;;;;;;6.32;4.38;;;;;;;-145.06;100.00;60892.56;4890342;28;20028;-87
2021/11/05 08:06:50;;;;;;;6.13;4.50;;;;;;;-145.06;100.00;60892.56;4881575;28;20032;-87
2021/11/05 08:09:30;;;;;;;6.97;4.70;;;;;;;-145.06;100.00;60892.56;4867399;28;20271;-88
2021/11/05 08:12:08;;;;;;;6.03;4.30;;;;;;;-145.06;100.00;60892.56;4895009;28;20069;-89
2021/11/05 08:14:47;;;;;;;6.17;4.40;;;;;;;-145.06;100.00;60892.56;4869217;28;20451;-88
2021/11/05 08:17:26;;;;;;;7.90;5.13;;;;;;;-145.06;100.00;60892.56;4867988;28;20482;-88
2021/11/05 08:20:06;;;;;;;7.35;4.53;;;;;;;-145.06;100.00;60892.56;4875455;28;20474;-88
2021/11/05 08:22:46;;;;;;;5.38;3.72;;;;;;;-145.06;100.00;60892.56;4876690;28;20052;-88
2021/11/05 08:25:28;;;;;;;6.22;4.43;;;;;;;-145.06;100.00;60892.56;4867937;28;20025;-89
2021/11/05 08:28:07;;;;;;;6.57;4.93;;;;;;;-145.06;100.00;60892.56;4890463;28;20036;-88
2021/11/05 08:30:48;;;;;;;5.43;4.10;;;;;;;-145.06;100.00;60892.56;4865596;28;20056;-88
2021/11/05 08:33:27;;;;;;;6.15;4.20;;;;;;;-145.06;100.00;60892.56;4874869;28;20029;-88
2021/11/05 08:36:09;;;;;;;5.93;4.10;;;;;;;-145.06;100.00;60892.56;4871786;28;20030;-88
2021/11/05 08:38:48;;;;;;;5.60;4.20;;;;;;;-145.06;100.00;60892.56;4889579;28;20036;-88
2021/11/05 08:41:27;;;;;;;4.70;3.75;;;;;;;-145.06;100.00;60892.56;4886925;28;20028;-89
2021/11/05 08:44:07;;;;;;;4.38;3.15;;;;;;;-145.06;100.00;60892.56;4876249;28;20040;-88
2021/11/05 08:46:46;;;;;;;4.63;3.28;;;;;;;-145.06;100.00;60892.56;4869788;28;20029;-89
2021/11/05 08:49:27;;;;;;;5.32;3.78;;;;;;;-145.06;100.00;60892.56;4863057;28;20064;-88
2021/11/05 08:52:06;;;;;;;4.90;3.60;;;;;;;-145.06;100.00;60892.56;4871218;28;20032;-89
2021/11/05 08:54:44;;;;;;;5.20;3.80;;;;;;;-145.06;100.00;60892.56;4870736;28;20025;-88
2021/11/05 08:57:23;;;;;;;5.40;3.78;;;;;;;-145.06;100.00;60892.56;4874587;28;20036;-88
2021/11/05 09:00:14;;;;;;;4.47;3.47;;;;;;;-145.06;100.00;60892.56;4875905;28;20028;-89
2021/11/05 09:02:54;;;;;;;5.60;3.65;;;;;;;-145.06;100.00;60892.56;4861714;28;20037;-87
2021/11/05 09:05:35;;;;;;;5.22;4.35;;;;;;;-145.06;100.00;60892.56;4872250;28;20029;-88
2021/11/05 09:08:14;;;;;;;6.32;4.18;;;;;;;-145.06;100.00;60892.56;4881045;28;20020;-89
2021/11/05 09:10:53;;;;;;;5.50;3.60;;;;;;;-145.06;100.00;60892.56;4879214;28;20025;-88
2021/11/05 09:13:34;;;;;;;5.33;4.10;;;;;;;-145.06;100.00;60892.56;4874017;28;20295;-90
2021/11/05 09:16:13;;;;;;;4.82;2.83;;;;;;;-145.06;100.00;60892.56;4872780;28;20411;-89
2021/11/05 09:18:52;;;;;;;4.22;3.13;;;;;;;-145.06;100.00;60892.56;4876014;28;20033;-87
2021/11/05 09:21:32;;;;;;;4.00;2.57;;;;;;;-145.06;100.00;60892.56;4888185;28;20028;-87
2021/11/05 09:24:11;;;;;;;4.05;2.90;;;;;;;-145.06;100.00;60892.56;4866858;28;20017;-88
2021/11/05 09:26:50;;;;;;;4.27;3.30;;;;;;;-145.06;100.00;60892.56;4874438;28;20028;-89
2021/11/05 09:29:29;;;;;;;5.40;4.07;;;;;;;-145.06;100.00;60892.56;4869535;28;20737;-89
2021/11/05 09:32:08;;;;;;;5.40;3.43;;;;;;;-145.06;100.00;60892.56;4874831;28;20029;-89
2021/11/05 09:34:47;;;;;;;4.35;3.28;;;;;;;-145.06;100.00;60892.56;4871438;28;20029;-88
2021/11/05 09:37:27;;;;;;;5.57;3.72;;;;;;;-145.06;100.00;60892.56;4887086;28;20036;-88
2021/11/05 09:40:10;;;;;;;8.18;4.30;;;;;;;-145.06;100.00;60892.56;4873035;28;20040;-89
2021/11/05 09:42:50;;;;;;;6.07;4.03;;;;;;;-145.06;100.00;60892.56;4867201;28;20038;-89
2021/11/05 09:45:32;;;;;;;3.53;3.05;;;;;;;-145.06;100.00;60892.56;4855369;28;20060;-88
2021/11/05 09:48:13;;;;;;;4.50;3.30;;;;;;;-145.06;100.00;60892.56;4872271;28;20478;-89
2021/11/05 09:50:52;;;;;;;5.25;3.92;;;;;;;-145.06;100.00;60892.56;4868131;28;20072;-89
2021/11/05 09:53:35;;;;;;;4.35;3.15;;;;;;;-145.06;100.00;60892.56;4866398;28;20025;-88
2021/11/05 09:56:14;;;;;;;4.07;2.80;;;;;;;-145.06;100.00;60892.56;4857315;28;20026;-88
2021/11/05 09:58:53;;;;;;;4.43;3.22;;;;;;;-145.06;100.00;60892.56;4875207;28;20029;-89
2021/11/05 10:01:33;;;;;;;3.60;2.92;;;;;;;-145.06;100.00;60892.56;4873583;28;20037;-87
2021/11/05 10:04:12;;;;;;;3.95;2.78;;;;;;;-145.06;100.00;60892.56;4885929;28;20462;-89
2021/11/05 10:07:18;;;;;;;3.42;2.53;;;;;;;-145.06;100.00;60892.56;4894288;28;20028;-89
2021/11/05 10:09:58;;;;;;;3.60;2.90;;;;;;;-145.06;100.00;60892.56;4872885;28;20470;-89
2021/11/05 10:12:37;;;;;;;6.60;3.15;;;;;;;10.68;100.00;60892.56;4856178;28;20025;-89
2021/11/05 10:15:16;;;;;;;4.25;3.10;;;;;;;-145.06;100.00;60892.56;4870558;28;20452;-87
2021/11/05 10:18:13;;;;;;;3.43;2.73;;;;;;;-145.06;100.00;60892.56;4888838;28;20762;-88
2021/11/05 10:21:12;;;;;;;3.50;2.95;;;;;;;-145.06;100.00;60892.56;4881715;28;20057;-88
2021/11/05 10:23:51;;;;;;;5.30;3.50;;;;;;;-145.06;100.00;60892.56;4854503;28;20361;-88
2021/11/05 10:26:33;;;;;;;3.65;2.78;;;;;;;-145.06;100.00;60892.56;4873936;28;20037;-89
2021/11/05 10:29:27;;;;;;;2.80;2.03;;;;;;;-145.06;100.00;60892.56;4875091;28;20029;-88
2021/11/05 10:32:08;;;;;;;4.28;2.72;;;;;;;-145.06;100.00;60892.56;4866188;28;20363;-87
2021/11/05 10:34:53;;;;;;;2.60;2.10;;;;;;;-145.06;100.00;60892.56;4887756;28;20047;-88
2021/11/05 10:37:33;;;;;;;4.13;2.25;;;;;;;-145.06;100.00;60892.56;4880165;28;20021;-89
2021/11/05 10:40:13;;;;;;;3.47;2.70;;;;;;;-145.06;100.00;60892.56;4883680;28;20525;-88
2021/11/05 10:42:52;;;;;;;3.55;2.40;;;;;;;-145.06;100.00;60892.56;4874950;28;20111;-88
2021/11/05 10:45:31;;;;;;;3.00;2.35;;;;;;;-145.06;100.00;60892.56;4861865;28;20104;-89
2021/11/05 10:48:12;;;;;;;;;;;;;;;-145.06;100.00;60892.56;4870229;28;20041;-89
2021/11/05 10:50:56;;;;;;;4.32;3.03;;;;;;;-145.06;100.00;60892.56;4877212;28;19948;-88
2021/11/05 10:53:37;;;;;;;3.30;2.50;;;;;;;-145.06;100.00;60892.56;4873387;28;20068;-89
2021/11/05 10:56:24;;;;;;;3.00;2.20;;;;;;;-145.06;100.00;60892.56;4860011;28;20029;-89
2021/11/05 10:59:06;;;;;;;4.18;2.22;;;;;;;11.71;100.00;60892.56;4858196;28;20065;-89
2021/11/05 11:01:46;;;;;;;4.03;2.38;;;;;;;15.88;100.00;60892.56;4874784;28;20465;-88
2021/11/05 11:04:28;;;;;;;3.63;2.85;;;;;;;-145.06;100.00;60892.56;4862817;28;20367;-89
2021/11/05 11:07:07;;;;;;;3.75;2.90;;;;;;;12.17;100.00;60892.56;4877133;28;20029;-88
2021/11/05 11:09:45;;;;;;;4.20;2.65;;;;;;;12.24;100.00;60892.56;4900315;28;20024;-87
2021/11/05 11:12:32;;;;;;;3.92;2.78;;;;;;;-145.06;100.00;60892.56;4894019;28;20030;-88
2021/11/05 11:15:31;;;;;;;2.67;1.85;;;;;;;-145.06;100.00;60892.56;4871136;28;20068;-88
2021/11/05 11:18:10;;;;;;;3.38;2.10;;;;;;;-145.06;100.00;60892.56;4890112;28;20470;-88
2021/11/05 11:20:49;;;;;;;1.92;1.50;;;;;;;-145.06;100.00;60892.56;4869668;28;20029;-88
2021/11/05 11:23:28;;;;;;;1.90;1.63;;;;;;;-145.06;100.00;60892.56;4874914;28;20025;-88
2021/11/05 11:26:08;;;;;;;5.07;2.50;;;;;;;-145.06;100.00;60892.56;4878025;28;20107;-87
2021/11/05 11:28:47;;;;;;;;;;;;;;;-145.06;100.00;60892.56;4891323;28;20577;-88
2021/11/05 11:31:27;;;;;;;2.72;1.75;;;;;;;-145.06;100.00;60892.56;4876119;28;19908;-89
2021/11/05 11:34:08;;;;;;;3.78;1.90;;;;;;;15.88;100.00;60892.56;4871208;28;20033;-89
2021/11/05 11:36:51;;;;;;;1.98;1.33;;;;;;;-145.06;100.00;60892.56;4873214;28;20044;-87
2021/11/05 11:39:32;;;;;;;1.98;1.50;;;;;;;-145.06;100.00;60892.56;4865278;28;20355;-88
2021/11/05 11:42:12;;;;;;;2.35;1.45;;;;;;;-145.06;100.00;60892.56;4887035;28;20359;-88
2021/11/05 11:44:51;;;;;;;2.40;1.65;;;;;;;-145.06;100.00;60892.56;4890816;28;20021;-87
2021/11/05 11:47:43;;;;;;;3.07;1.77;;;;;;;-145.06;100.00;60892.56;4870941;28;20025;-88
2021/11/05 11:50:26;;;;;;;4.28;2.20;;;;;;;-145.06;100.00;60892.56;4874271;28;20283;-89
2021/11/05 11:53:08;;;;;;;1.73;1.40;;;;;;;-145.06;100.00;60892.56;4881572;28;20048;-89
2021/11/05 11:55:59;;;;;;;2.38;1.40;;;;;;;-145.06;100.00;60892.56;4859648;28;20040;-88
2021/11/05 11:58:52;;;;;;;2.45;1.85;;;;;;;-145.06;100.00;60892.56;4874743;28;20024;-89
2021/11/05 12:01:36;;;;;;;2.15;1.50;;;;;;;-145.06;100.00;60892.56;4873177;28;20012;-88
2021/11/05 12:04:17;;;;;;;3.33;1.67;;;;;;;-145.06;100.00;60892.56;4875705;28;20384;-90
2021/11/05 12:07:01;;;;;;;1.50;1.33;;;;;;;-145.06;100.00;60892.56;4867172;28;20061;-88
2021/11/05 12:09:41;;;;;;;3.55;1.88;;;;;;;12.23;100.00;60892.56;4870311;28;20064;-88
2021/11/05 12:12:19;;;;;;;;;;;;;;;-145.06;100.00;60892.56;4890758;28;20017;-88